Airfield :
LOGIN :

Register | Disclaimer

   EN    FR    IT 

 










Legend :    VFR   Marginal VFR   IFR   Intensive IFR   Very Intensive IFR
Visi :
Ceiling :
>= 8 km
>= 3000ft
5 to 8 km
1000 to 3000 ft
1500m to 5 km
500 to 1000 ft
800 to 1500m
200 to 500 ft
< 800m
< 200 ft
Symbols :   Thunderstorms  Fog  Heavy snow  Heavy precipitations  Wind > 20 kt
SIGMETs :     Misc.  Thunderstorms  Icing  Turbulence  Mountain Waves  Volcanic Ashes






- Airport Elevation : 13 ft
- IATA code : CEQ


LFMD - Cannes Mandelieu

CURRENT METAR :
  • 151930Z AUTO 28015KT 250V320 CAVOK 18/08 Q1011 TEMPO 26015G25KT

EXPIRED METARs :
  • 151900Z AUTO 27016KT 240V300 CAVOK 18/09 Q1011 TEMPO 26015G25KT
  • 151830Z AUTO 27015G25KT 240V300 CAVOK 18/09 Q1011 NOSIG
  • 151800Z AUTO 27015G26KT 240V300 CAVOK 18/09 Q1011 NOSIG
  • 151730Z AUTO 26012KT CAVOK 18/09 Q1010 TEMPO 26015G25KT
  • 151700Z AUTO 25014G25KT 220V280 CAVOK 19/09 Q1010 NOSIG
  • 151630Z AUTO 27012KT 230V300 CAVOK 19/10 Q1009 TEMPO 26015G25KT

TAF TAF LFMD
Valid from the 15 at 15:00 until the 16 at 15:00 UTC


151400Z 1515/1615 26012KT CAVOK
TEMPO 1515/1521 26015G25KT
BECMG 1600/1603 36006KT
PROB40
TEMPO 1603/1608 BKN014
BECMG 1609/1611 20010KT
ATIS : +33 4 93 48 73 23



MET'MAP, your aeronautical weather chart ! - Copyright ORBIFLY December 2007 - Disclaimer

ORBIFLY MET'MAP TEAM :

Programming & Development : Alexandra Zaïnal
Concept & Development : Baudouin d'Aumeries
Co-Development & Prog : Marc-Olivier Méhu
Technical & hardware support : Manuel Goepfert

Contact : metmap@orbifly.com




SOURCES & CREDITS :

   NOAA